Time;durP1;ratioP1;P1;durP2;ratioP2;P2;SDS_P1;SDS_P2;PMS_P1;PMS_P2;Temp;Humidity;BMP_temperature;BMP_pressure;BME280_temperature;BME280_humidity;BME280_pressure;Samples;Min_cycle;Max_cycle;Signal;HPM_P1;HPM_P2
2023/04/27 00:01:48;;;;;;;3.60;2.97;;;10.30;99.90;;;;;;12859778;23;20489;-91
2023/04/27 00:06:51;;;;;;;9.97;5.17;;;10.60;99.90;;;;;;12855610;23;20187;-90
2023/04/27 00:11:53;;;;;;;9.13;5.43;;;10.40;91.20;;;;;;12853839;23;20182;-90
2023/04/27 00:16:56;;;;;;;7.03;4.90;;;9.70;92.40;;;;;;12851460;23;20199;-90
2023/04/27 00:21:59;;;;;;;10.57;6.87;;;10.00;95.60;;;;;;12853220;23;20226;-91
2023/04/27 00:27:01;;;;;;;10.30;7.67;;;9.70;90.60;;;;;;12826468;23;20276;-90
2023/04/27 00:32:04;;;;;;;11.87;7.50;;;9.00;92.90;;;;;;12851271;23;20183;-90
2023/04/27 00:37:07;;;;;;;14.35;6.78;;;9.10;94.70;;;;;;12850814;23;20264;-91
2023/04/27 00:42:14;;;;;;;12.70;7.00;;;8.80;93.50;;;;;;12853375;23;20179;-91
2023/04/27 00:47:16;;;;;;;14.57;7.70;;;8.20;93.30;;;;;;12872234;23;20171;-91
2023/04/27 00:52:19;;;;;;;6.70;4.87;;;8.10;91.80;;;;;;12851392;23;20182;-91
2023/04/27 00:57:23;;;;;;;16.27;8.80;;;7.80;99.40;;;;;;12851898;23;20202;-91
2023/04/27 01:02:26;;;;;;;15.53;8.70;;;8.00;93.00;;;;;;12852270;23;20217;-91
2023/04/27 01:07:29;;;;;;;15.93;5.83;;;7.50;91.70;;;;;;12851355;23;20183;-91
2023/04/27 01:12:33;;;;;;;6.90;5.57;;;7.70;99.40;;;;;;12852478;23;20167;-90
2023/04/27 01:17:36;;;;;;;16.83;7.47;;;7.90;95.90;;;;;;12851832;23;20220;-91
2023/04/27 01:22:39;;;;;;;8.80;5.60;;;7.90;94.70;;;;;;12825179;23;20180;-91
2023/04/27 01:27:43;;;;;;;8.47;5.20;;;7.90;97.60;;;;;;12852589;23;20194;-91
2023/04/27 01:32:45;;;;;;;5.57;4.70;;;8.70;99.90;;;;;;12851598;23;20179;-89
2023/04/27 01:37:48;;;;;;;11.33;6.17;;;9.00;97.20;;;;;;12856024;23;20833;-89
2023/04/27 01:42:52;;;;;;;11.83;5.90;;;9.10;95.50;;;;;;12856496;23;20159;-89
2023/04/27 01:47:54;;;;;;;11.43;6.50;;;9.20;93.80;;;;;;12854080;23;20213;-88
2023/04/27 01:52:57;;;;;;;9.03;4.90;;;9.20;91.50;;;;;;12855829;23;20491;-89
2023/04/27 01:58:00;;;;;;;8.03;5.33;;;9.60;95.10;;;;;;12856014;23;20183;-89
2023/04/27 02:03:03;;;;;;;8.77;5.50;;;9.90;93.80;;;;;;12853437;23;20717;-89
2023/04/27 02:08:06;;;;;;;11.20;5.83;;;9.80;93.60;;;;;;12852650;23;20240;-89
2023/04/27 02:13:08;;;;;;;7.87;5.33;;;9.60;93.30;;;;;;12853979;23;20233;-89
2023/04/27 02:18:11;;;;;;;9.97;6.23;;;9.90;95.40;;;;;;12852881;23;20256;-88
2023/04/27 02:23:14;;;;;;;5.90;4.00;;;9.70;89.20;;;;;;12856092;23;20511;-89
2023/04/27 02:28:17;;;;;;;6.43;4.50;;;10.00;97.10;;;;;;12856206;23;20168;-89
2023/04/27 02:33:20;;;;;;;6.47;3.92;;;10.20;97.50;;;;;;12856666;23;20549;-89
2023/04/27 02:38:22;;;;;;;7.40;5.50;;;10.40;94.30;;;;;;12856093;23;20229;-89
2023/04/27 02:43:25;;;;;;;5.37;3.60;;;10.20;92.30;;;;;;12855258;23;20496;-90
2023/04/27 02:48:29;;;;;;;4.90;3.90;;;10.70;97.20;;;;;;12854074;23;20249;-89
2023/04/27 02:53:31;;;;;;;5.23;3.40;;;10.80;94.80;;;;;;12858366;23;20172;-89
2023/04/27 02:58:34;;;;;;;5.90;4.10;;;11.00;95.70;;;;;;12853388;23;20199;-89
2023/04/27 03:03:36;;;;;;;4.97;4.03;;;11.10;94.10;;;;;;12853155;23;20225;-89
2023/04/27 03:08:39;;;;;;;6.20;3.73;;;11.10;95.00;;;;;;12855328;23;20813;-89
2023/04/27 03:13:42;;;;;;;4.90;3.70;;;11.10;95.00;;;;;;12853373;23;20183;-89
2023/04/27 03:18:45;;;;;;;6.77;4.90;;;11.10;94.40;;;;;;12855517;23;20581;-89
2023/04/27 03:23:47;;;;;;;5.67;3.33;;;10.90;91.40;;;;;;12852676;23;20179;-89
2023/04/27 03:28:50;;;;;;;5.90;4.17;;;11.20;96.20;;;;;;12872049;23;20167;-88
2023/04/27 03:33:53;;;;;;;5.80;4.10;;;11.00;92.30;;;;;;12853112;23;20179;-89
2023/04/27 03:38:56;;;;;;;4.37;3.77;;;10.60;93.10;;;;;;12854627;23;20195;-89
2023/04/27 03:43:59;;;;;;;5.73;4.40;;;10.60;94.10;;;;;;12852351;23;20202;-89
2023/04/27 03:49:02;;;;;;;11.07;5.50;;;10.30;93.10;;;;;;12851961;23;20183;-90
2023/04/27 03:54:05;;;;;;;10.60;5.90;;;9.80;90.50;;;;;;12851605;23;20241;-89
2023/04/27 03:59:08;;;;;;;8.03;5.37;;;9.90;93.00;;;;;;12851676;23;20569;-89
2023/04/27 04:04:12;;;;;;;9.07;4.83;;;9.90;93.90;;;;;;12851954;23;20171;-89
2023/04/27 04:09:16;;;;;;;7.07;4.80;;;10.10;96.80;;;;;;12851939;23;20183;-89
2023/04/27 04:14:19;;;;;;;7.77;4.40;;;10.20;95.90;;;;;;12854292;23;20183;-90
2023/04/27 04:19:22;;;;;;;7.30;3.93;;;10.20;97.60;;;;;;12874062;23;20565;-89
2023/04/27 04:24:24;;;;;;;10.27;5.90;;;10.20;96.20;;;;;;12854923;23;20183;-89
2023/04/27 04:29:27;;;;;;;5.77;4.60;;;10.50;95.10;;;;;;12854993;23;20205;-87
2023/04/27 04:34:30;;;;;;;4.90;3.97;;;10.60;95.20;;;;;;12855357;23;20577;-88
2023/04/27 04:39:33;;;;;;;7.80;4.33;;;11.00;96.30;;;;;;12854400;23;20202;-88
2023/04/27 04:44:37;;;;;;;3.57;2.87;;;11.20;96.60;;;;;;12854151;23;20597;-88
2023/04/27 04:49:40;;;;;;;7.40;5.00;;;11.50;99.90;;;;;;12854925;23;20183;-89
2023/04/27 04:54:43;;;;;;;7.90;5.00;;;12.00;93.00;;;;;;12856908;23;20521;-89
2023/04/27 04:59:45;;;;;;;7.47;5.47;;;11.80;93.50;;;;;;12854233;23;20198;-89
2023/04/27 05:04:50;;;;;;;9.33;5.47;;;11.70;90.30;;;;;;12856621;23;20583;-88
2023/04/27 05:09:53;;;;;;;5.63;3.97;;;11.60;82.90;;;;;;12861724;23;20167;-88
2023/04/27 05:14:56;;;;;;;4.73;3.43;;;11.80;92.70;;;;;;12862663;23;20619;-88
2023/04/27 05:19:59;;;;;;;8.23;4.50;;;12.30;93.20;;;;;;12859768;23;20261;-88
2023/04/27 05:25:02;;;;;;;7.93;4.10;;;12.70;90.10;;;;;;12863397;23;20582;-88
2023/04/27 05:30:05;;;;;;;6.50;3.30;;;12.90;85.10;;;;;;12861168;23;20548;-88
2023/04/27 05:35:08;;;;;;;5.90;3.60;;;12.70;85.30;;;;;;12861713;23;20230;-89
2023/04/27 05:40:11;;;;;;;9.50;3.73;;;13.20;91.10;;;;;;12861139;23;20191;-88
2023/04/27 05:45:14;;;;;;;9.37;3.83;;;13.40;81.60;;;;;;12862836;23;20241;-88
2023/04/27 05:50:16;;;;;;;8.97;4.47;;;13.60;86.40;;;;;;12860518;23;20175;-88
2023/04/27 05:55:19;;;;;;;10.07;4.70;;;13.60;70.60;;;;;;12863310;23;20761;-88
2023/04/27 06:00:22;;;;;;;6.07;3.73;;;13.50;73.10;;;;;;12882032;23;20686;-88
2023/04/27 06:05:25;;;;;;;5.10;4.13;;;13.60;81.50;;;;;;12864113;23;20198;-89
2023/04/27 06:10:28;;;;;;;4.63;3.53;;;13.80;82.20;;;;;;12862701;23;20171;-89
2023/04/27 06:15:31;;;;;;;4.30;3.30;;;14.10;80.60;;;;;;12861440;23;20256;-89
2023/04/27 06:20:34;;;;;;;4.07;3.60;;;14.60;77.30;;;;;;12881007;23;20252;-89
2023/04/27 06:25:38;;;;;;;15.23;6.17;;;13.90;71.30;;;;;;12865710;23;20510;-89
2023/04/27 06:30:41;;;;;;;4.20;3.40;;;14.00;70.90;;;;;;12862223;23;20520;-89
2023/04/27 06:35:45;;;;;;;6.90;3.33;;;13.90;78.90;;;;;;12865410;23;20187;-89
2023/04/27 06:40:52;;;;;;;7.00;4.67;;;13.90;65.80;;;;;;12863378;23;20207;-89
2023/04/27 06:45:54;;;;;;;5.50;3.43;;;13.40;56.60;;;;;;12879430;23;20163;-89
2023/04/27 06:50:57;;;;;;;6.07;4.30;;;13.60;68.20;;;;;;12859714;23;20175;-88
2023/04/27 06:55:59;;;;;;;5.03;3.20;;;14.20;75.70;;;;;;12859185;23;20495;-89
2023/04/27 07:01:03;;;;;;;4.87;3.07;;;15.10;79.00;;;;;;12859063;23;20187;-89
2023/04/27 07:06:05;;;;;;;7.33;4.43;;;15.40;76.90;;;;;;12860934;23;20187;-89
2023/04/27 07:11:08;;;;;;;6.27;3.63;;;15.40;64.60;;;;;;12862859;23;20229;-89
2023/04/27 07:16:11;;;;;;;6.63;3.53;;;15.40;60.50;;;;;;12863003;23;20229;-88
2023/04/27 07:21:14;;;;;;;7.27;3.90;;;14.50;62.80;;;;;;12862403;23;20277;-88
2023/04/27 07:26:16;;;;;;;3.13;2.47;;;14.20;50.60;;;;;;12860701;23;20171;-86
2023/04/27 07:31:19;;;;;;;4.27;3.30;;;14.50;76.30;;;;;;12859729;23;20264;-88
2023/04/27 07:36:21;;;;;;;4.17;2.67;;;14.90;65.10;;;;;;12861535;23;20174;-89
2023/04/27 07:41:24;;;;;;;5.07;2.73;;;14.80;80.00;;;;;;12859176;23;20199;-88
2023/04/27 07:46:29;;;;;;;2.10;1.67;;;;;;;;;;12861176;23;20755;-88
2023/04/27 07:51:33;;;;;;;4.73;2.67;;;16.00;73.20;;;;;;12863012;23;20626;-88
2023/04/27 07:56:35;;;;;;;8.23;2.97;;;16.00;75.10;;;;;;12861295;23;20179;-88
2023/04/27 08:01:38;;;;;;;4.57;2.43;;;16.30;72.70;;;;;;12864216;23;20229;-88
2023/04/27 08:06:40;;;;;;;1.50;1.20;;;16.00;81.70;;;;;;12865004;23;20217;-88
2023/04/27 08:11:43;;;;;;;5.83;2.93;;;16.30;79.40;;;;;;12865250;23;20178;-87
2023/04/27 08:16:46;;;;;;;4.57;2.37;;;16.40;71.00;;;;;;12867823;23;20243;-88
2023/04/27 08:21:49;;;;;;;2.40;1.83;;;16.70;80.00;;;;;;12864798;23;20257;-87
2023/04/27 08:26:51;;;;;;;2.63;1.60;;;;;;;;;;12858445;23;20183;-86
2023/04/27 08:31:57;;;;;;;2.47;2.17;;;17.10;60.40;;;;;;12861946;23;20183;-87
2023/04/27 08:37:01;;;;;;;6.30;2.13;;;17.00;66.50;;;;;;12913033;23;20175;-87
2023/04/27 08:42:12;;;;;;;1.77;1.20;;;16.40;54.80;;;;;;12916152;23;20235;-87
2023/04/27 08:47:15;;;;;;;4.30;1.87;;;16.30;71.70;;;;;;12918713;23;20226;-87
2023/04/27 08:52:18;;;;;;;8.23;3.50;;;16.20;67.20;;;;;;12918135;23;20210;-86
2023/04/27 08:57:20;;;;;;;6.03;2.83;;;12.90;19.80;;;;;;12917975;23;20273;-86
2023/04/27 09:02:23;;;;;;;3.37;2.80;;;11.50;23.60;;;;;;12919268;23;20328;-87
2023/04/27 09:07:26;;;;;;;3.50;2.13;;;10.40;30.00;;;;;;12917640;23;20218;-86
2023/04/27 09:12:30;;;;;;;9.53;2.70;;;10.10;27.40;;;;;;12919481;23;20231;-87
2023/04/27 09:17:32;;;;;;;6.30;2.47;;;10.20;28.30;;;;;;12915290;23;20225;-86
2023/04/27 09:22:56;;;;;;;4.20;2.50;;;10.10;29.80;;;;;;12916810;23;20234;-86
2023/04/27 09:28:00;;;;;;;3.27;1.83;;;9.80;29.00;;;;;;12933311;23;20620;-87
2023/04/27 09:33:02;;;;;;;5.27;2.47;;;10.60;63.40;;;;;;12915960;23;20250;-87
2023/04/27 09:38:05;;;;;;;6.90;2.43;;;11.10;26.90;;;;;;12915498;23;20294;-86
2023/04/27 09:43:08;;;;;;;11.60;5.57;;;10.80;28.70;;;;;;12917294;23;20163;-86
2023/04/27 09:48:12;;;;;;;7.90;2.23;;;11.40;41.30;;;;;;12917662;23;20255;-87
2023/04/27 09:53:19;;;;;;;7.50;3.93;;;11.00;24.70;;;;;;12918127;23;20219;-86
2023/04/27 09:58:59;;;;;;;10.27;3.83;;;10.50;32.20;;;;;;12917239;23;20243;-87
2023/04/27 10:04:22;;;;;;;7.20;2.17;;;11.10;31.20;;;;;;12917306;23;20230;-87
2023/04/27 10:09:28;;;;;;;5.83;2.90;;;11.20;27.10;;;;;;12668833;23;20194;-87
2023/04/27 10:14:30;;;;;;;6.73;2.63;;;11.50;30.00;;;;;;12644597;23;20215;-87
2023/04/27 10:19:33;;;;;;;6.53;2.20;;;11.50;34.30;;;;;;12668752;23;20217;-87
2023/04/27 10:24:40;;;;;;;11.40;1.70;;;11.10;23.10;;;;;;12671996;23;20246;-86
2023/04/27 10:29:45;;;;;;;2.27;2.07;;;10.30;26.10;;;;;;12648863;23;20245;-87
2023/04/27 10:34:48;;;;;;;8.30;2.63;;;10.50;23.50;;;;;;12647320;23;20225;-87
2023/04/27 10:39:50;;;;;;;4.60;2.80;;;10.30;24.50;;;;;;12671341;23;20277;-87
2023/04/27 10:44:57;;;;;;;8.30;3.07;;;10.30;26.20;;;;;;12797806;23;20211;-87
2023/04/27 10:50:00;;;;;;;4.00;2.43;;;12.40;59.20;;;;;;12921832;23;20236;-87
2023/04/27 10:55:13;;;;;;;8.90;2.90;;;13.30;30.90;;;;;;12933247;23;20155;-88
2023/04/27 11:00:40;;;;;;;6.67;2.23;;;14.50;50.80;;;;;;12919196;23;20353;-88
2023/04/27 11:05:44;;;;;;;5.23;1.97;;;14.40;40.10;;;;;;12919772;23;20238;-87
2023/04/27 11:10:49;;;;;;;9.67;2.60;;;13.40;19.50;;;;;;12921021;23;20250;-88
2023/04/27 11:15:57;;;;;;;5.43;2.20;;;13.50;24.60;;;;;;12919351;23;20258;-88
2023/04/27 11:21:12;;;;;;;6.87;2.77;;;13.00;24.40;;;;;;12919695;23;20242;-88
2023/04/27 11:26:18;;;;;;;7.37;3.90;;;13.40;27.20;;;;;;12920096;23;20221;-88
2023/04/27 11:31:20;;;;;;;8.50;2.67;;;13.70;33.90;;;;;;12937939;23;20227;-87
2023/04/27 11:36:25;;;;;;;3.73;2.20;;;14.00;38.00;;;;;;12919730;23;20262;-88
2023/04/27 11:41:38;;;;;;;3.43;1.20;;;14.70;33.70;;;;;;12911776;23;20263;-84
2023/04/27 11:46:44;;;;;;;3.67;1.03;;;15.40;30.60;;;;;;12914988;23;20261;-87
2023/04/27 11:51:47;;;;;;;2.00;1.00;;;16.00;20.70;;;;;;12919369;23;20225;-87
2023/04/27 11:56:50;;;;;;;3.00;1.17;;;16.10;19.00;;;;;;12918639;23;20252;-87
2023/04/27 12:01:52;;;;;;;5.67;2.30;;;15.60;17.00;;;;;;12938084;23;20226;-88
2023/04/27 12:06:55;;;;;;;6.03;1.77;;;14.90;18.20;;;;;;12919430;23;20217;-88
2023/04/27 12:11:57;;;;;;;0.80;0.80;;;14.80;18.80;;;;;;12919149;23;20226;-87
2023/04/27 12:17:00;;;;;;;4.00;1.00;;;15.40;21.60;;;;;;12899410;23;20547;-87
2023/04/27 12:22:03;;;;;;;3.17;1.27;;;15.90;22.10;;;;;;12863072;23;20206;-88
2023/04/27 12:27:06;;;;;;;1.23;0.97;;;16.60;21.30;;;;;;12864046;23;20182;-87
2023/04/27 12:32:09;;;;;;;2.40;1.27;;;16.70;20.50;;;;;;12865799;23;20179;-88
2023/04/27 12:37:11;;;;;;;3.53;1.70;;;16.10;16.00;;;;;;12867218;23;20260;-87
2023/04/27 12:42:15;;;;;;;7.40;3.83;;;16.30;17.90;;;;;;12862851;23;20315;-88
2023/04/27 12:47:20;;;;;;;5.67;2.10;;;14.40;11.10;;;;;;12866292;23;20210;-87
2023/04/27 12:52:43;;;;;;;4.53;1.67;;;12.70;14.00;;;;;;12875351;23;20177;-87
2023/04/27 12:57:45;;;;;;;4.20;1.90;;;12.40;15.60;;;;;;12863184;23;20234;-87
2023/04/27 13:02:48;;;;;;;3.13;1.77;;;12.00;17.60;;;;;;12868231;23;20202;-87
2023/04/27 13:07:51;;;;;;;3.83;1.20;;;12.40;25.70;;;;;;12864650;23;20164;-87
2023/04/27 13:12:53;;;;;;;5.73;1.93;;;13.70;33.80;;;;;;12865619;23;20213;-87
2023/04/27 13:17:57;;;;;;;2.63;1.50;;;13.80;20.40;;;;;;12866027;23;20577;-87
2023/04/27 13:23:03;;;;;;;4.00;1.60;;;13.80;26.90;;;;;;12862165;23;20186;-87
2023/04/27 13:28:06;;;;;;;2.23;1.60;;;14.70;34.10;;;;;;12860334;23;20182;-87
2023/04/27 13:33:13;;;;;;;2.13;1.37;;;15.30;24.20;;;;;;12865887;23;20179;-87
2023/04/27 13:38:24;;;;;;;2.27;1.73;;;15.30;23.00;;;;;;12871627;23;20195;-87
2023/04/27 13:43:27;;;;;;;3.00;1.27;;;15.50;28.30;;;;;;12865890;23;20178;-87
2023/04/27 13:48:30;;;;;;;3.97;1.50;;;15.60;28.20;;;;;;12865066;23;20180;-87
2023/04/27 13:53:33;;;;;;;2.93;1.67;;;15.90;19.20;;;;;;12864319;23;20185;-87
2023/04/27 13:58:36;;;;;;;2.73;1.60;;;16.20;28.50;;;;;;12864732;23;20524;-87
2023/04/27 14:03:39;;;;;;;3.27;1.73;;;16.40;26.30;;;;;;12862849;23;20175;-87
2023/04/27 14:08:45;;;;;;;2.47;1.40;;;16.10;23.10;;;;;;12863117;23;20186;-87
2023/04/27 14:13:47;;;;;;;1.93;1.27;;;16.30;26.40;;;;;;12864481;23;20187;-87
2023/04/27 14:18:51;;;;;;;2.33;1.37;;;16.00;22.30;;;;;;12868206;23;20571;-87
2023/04/27 14:23:53;;;;;;;3.00;1.23;;;16.40;25.60;;;;;;12864646;23;20184;-87
2023/04/27 14:28:56;;;;;;;3.73;2.10;;;16.50;22.50;;;;;;12861866;23;20179;-87
2023/04/27 14:34:00;;;;;;;4.20;1.40;;;16.50;17.30;;;;;;12853805;23;20579;-87
2023/04/27 14:39:05;;;;;;;2.40;1.40;;;15.70;22.80;;;;;;12854738;23;20202;-87
2023/04/27 14:44:08;;;;;;;1.30;0.90;;;16.30;27.00;;;;;;12853684;23;20166;-87
2023/04/27 14:49:10;;;;;;;2.67;1.40;;;16.50;26.00;;;;;;12853328;23;20487;-87
2023/04/27 14:54:13;;;;;;;2.40;1.50;;;16.70;26.10;;;;;;12852881;23;20186;-87
2023/04/27 14:59:16;;;;;;;8.43;2.30;;;16.70;21.00;;;;;;12855023;23;20187;-87
2023/04/27 15:04:19;;;;;;;2.43;1.03;;;16.30;23.70;;;;;;12854222;23;20176;-87
2023/04/27 15:09:22;;;;;;;1.43;1.20;;;16.00;26.00;;;;;;12853662;23;20654;-87
2023/04/27 15:14:24;;;;;;;1.97;1.40;;;16.40;26.20;;;;;;12851954;23;20261;-87
2023/04/27 15:19:27;;;;;;;7.77;3.13;;;16.00;21.90;;;;;;12854005;23;20199;-86
2023/04/27 15:24:30;;;;;;;5.57;2.43;;;15.00;13.10;;;;;;12851817;23;20241;-86
2023/04/27 15:29:32;;;;;;;3.73;2.50;;;13.30;15.50;;;;;;12852424;23;20175;-86
2023/04/27 15:34:35;;;;;;;1.67;1.43;;;12.30;16.90;;;;;;12855257;23;20276;-86
2023/04/27 15:39:37;;;;;;;4.07;1.80;;;12.00;24.80;;;;;;12855564;23;20195;-87
2023/04/27 15:44:40;;;;;;;4.27;2.70;;;12.10;20.90;;;;;;12852495;23;20163;-87
2023/04/27 15:49:42;;;;;;;3.37;1.50;;;11.60;20.40;;;;;;12869480;23;20198;-86
2023/04/27 15:54:59;;;;;;;2.90;1.57;;;12.20;92.20;;;;;;12853459;23;20175;-86
2023/04/27 16:00:05;;;;;;;4.40;1.80;;;14.00;96.90;;;;;;12851184;23;20217;-86
2023/04/27 16:05:11;;;;;;;2.80;1.93;;;14.90;88.70;;;;;;12873677;23;20222;-86
2023/04/27 16:10:14;;;;;;;6.10;2.00;;;14.80;89.40;;;;;;12870338;23;20318;-87
2023/04/27 16:15:16;;;;;;;5.70;2.20;;;14.10;47.60;;;;;;12853469;23;20245;-88
2023/04/27 16:20:20;;;;;;;4.53;2.23;;;14.40;88.80;;;;;;12851242;23;20232;-89
2023/04/27 16:25:22;;;;;;;4.70;2.23;;;13.50;25.10;;;;;;12869713;23;20167;-89
2023/04/27 16:30:25;;;;;;;12.17;3.10;;;11.70;26.00;;;;;;12871024;23;20167;-89
2023/04/27 16:35:28;;;;;;;16.17;5.87;;;10.90;27.60;;;;;;12852123;23;20267;-90
2023/04/27 16:40:32;;;;;;;3.37;2.03;;;10.80;27.80;;;;;;12857124;23;20259;-89
2023/04/27 16:45:35;;;;;;;2.73;1.93;;;10.80;29.60;;;;;;12852449;23;20179;-89
2023/04/27 16:50:38;;;;;;;4.37;2.13;;;10.70;25.20;;;;;;12852084;23;20237;-89
2023/04/27 16:55:40;;;;;;;11.77;1.97;;;10.60;24.30;;;;;;12850814;23;20713;-89
2023/04/27 17:00:43;;;;;;;2.90;1.93;;;10.20;24.00;;;;;;12852308;23;20617;-90
2023/04/27 17:05:46;;;;;;;4.37;2.57;;;9.90;25.90;;;;;;12856439;23;20182;-89
2023/04/27 17:10:48;;;;;;;9.67;3.27;;;9.80;26.50;;;;;;12855253;23;20194;-90
2023/04/27 17:15:51;;;;;;;5.17;2.27;;;9.40;27.20;;;;;;12857865;23;20183;-92
2023/04/27 17:20:54;;;;;;;4.70;2.90;;;10.40;90.40;;;;;;12856533;23;20191;-93
2023/04/27 17:25:56;;;;;;;3.83;2.60;;;11.30;88.60;;;;;;12857259;23;20546;-94
2023/04/27 17:30:59;;;;;;;8.47;3.30;;;11.50;70.60;;;;;;12857105;23;20183;-92
2023/04/27 17:36:02;;;;;;;3.17;2.20;;;11.70;64.50;;;;;;12855233;23;20187;-93
2023/04/27 17:41:04;;;;;;;4.23;2.63;;;11.90;69.10;;;;;;12855562;23;20280;-92
2023/04/27 17:46:10;;;;;;;7.73;3.13;;;12.20;66.40;;;;;;12855232;23;20565;-92
2023/04/27 17:51:14;;;;;;;6.53;2.33;;;12.80;43.70;;;;;;12856887;23;20186;-93
2023/04/27 17:56:17;;;;;;;5.93;2.27;;;10.80;31.10;;;;;;12856213;23;20630;-91
2023/04/27 18:01:19;;;;;;;2.47;1.80;;;9.80;34.10;;;;;;12853551;23;20202;-93
2023/04/27 18:06:22;;;;;;;2.43;1.87;;;11.70;97.70;;;;;;12858071;23;20255;-93
2023/04/27 18:11:24;;;;;;;3.13;1.93;;;12.80;92.80;;;;;;12860614;23;20293;-92
2023/04/27 18:16:27;;;;;;;2.30;1.90;;;13.10;78.60;;;;;;12856265;23;20171;-93
2023/04/27 18:21:30;;;;;;;2.53;2.27;;;12.60;62.40;;;;;;12854741;23;20202;-92
2023/04/27 18:26:35;;;;;;;7.60;2.80;;;12.10;64.20;;;;;;12855002;23;20175;-87
2023/04/27 18:31:38;;;;;;;4.50;2.20;;;10.70;35.60;;;;;;12855290;23;20185;-87
2023/04/27 18:36:40;;;;;;;3.80;2.50;;;10.10;55.60;;;;;;12854080;23;20191;-87
2023/04/27 18:41:43;;;;;;;4.10;2.60;;;9.70;61.80;;;;;;12852462;23;20591;-88
2023/04/27 18:46:45;;;;;;;5.70;3.17;;;9.00;61.80;;;;;;12872021;23;20171;-87
2023/04/27 18:51:48;;;;;;;7.30;3.10;;;8.10;77.60;;;;;;12854769;23;20249;-87
2023/04/27 18:56:52;;;;;;;23.63;4.20;;;8.00;78.10;;;;;;12853123;23;20244;-86
2023/04/27 19:01:55;;;;;;;14.63;3.53;;;8.00;83.50;;;;;;12853670;23;20190;-88
2023/04/27 19:06:57;;;;;;;8.00;5.03;;;7.80;89.10;;;;;;12853951;23;20185;-86
2023/04/27 19:12:01;;;;;;;13.87;6.50;;;7.80;92.40;;;;;;12854168;23;20193;-87
2023/04/27 19:17:05;;;;;;;17.30;8.60;;;7.30;91.90;;;;;;12851954;23;20179;-87
2023/04/27 19:22:09;;;;;;;22.93;11.20;;;7.20;93.70;;;;;;12851837;23;20199;-87
2023/04/27 19:27:11;;;;;;;29.47;15.90;;;6.70;91.10;;;;;;12855255;23;20198;-86
2023/04/27 19:32:14;;;;;;;39.77;20.30;;;4.80;97.70;;;;;;12852294;23;20713;-84
2023/04/27 19:37:17;;;;;;;58.63;20.30;;;4.70;98.60;;;;;;12854448;23;20215;-86
2023/04/27 19:42:19;;;;;;;39.80;18.07;;;4.50;99.80;;;;;;12873284;23;20191;-85
2023/04/27 19:47:22;;;;;;;32.53;16.50;;;4.20;99.90;;;;;;12855360;23;20514;-85
2023/04/27 19:52:25;;;;;;;32.20;16.57;;;4.00;99.90;;;;;;12852626;23;20191;-85
2023/04/27 19:57:28;;;;;;;30.67;16.67;;;3.80;99.90;;;;;;12854447;23;20206;-85
2023/04/27 20:02:30;;;;;;;48.43;28.80;;;3.70;99.90;;;;;;12854599;23;20237;-85
2023/04/27 20:07:33;;;;;;;53.07;26.83;;;3.70;99.90;;;;;;12850102;23;20206;-85
2023/04/27 20:12:35;;;;;;;52.17;31.10;;;3.60;99.90;;;;;;12853422;23;20186;-85
2023/04/27 20:17:57;;;;;;;80.57;44.90;;;3.30;99.90;;;;;;12853116;23;20183;-84
2023/04/27 20:23:00;;;;;;;70.80;35.20;;;3.00;99.90;;;;;;12851777;23;20194;-86
2023/04/27 20:28:02;;;;;;;71.50;37.50;;;2.80;99.90;;;;;;12855632;23;20190;-87
2023/04/27 20:33:05;;;;;;;80.57;38.87;;;2.80;99.90;;;;;;12855383;23;20183;-85
2023/04/27 20:38:08;;;;;;;70.53;34.60;;;2.50;99.90;;;;;;12857265;23;20206;-85
2023/04/27 20:43:12;;;;;;;61.70;32.50;;;2.30;99.90;;;;;;12855982;23;20681;-84
2023/04/27 20:48:14;;;;;;;61.80;28.07;;;2.30;99.90;;;;;;12857035;23;20175;-85
2023/04/27 20:53:17;;;;;;;59.90;27.70;;;2.20;99.90;;;;;;12855512;23;20187;-85
2023/04/27 20:58:20;;;;;;;65.67;32.07;;;2.10;99.90;;;;;;12856806;23;20182;-84
2023/04/27 21:03:22;;;;;;;66.53;33.37;;;1.90;99.90;;;;;;12858839;23;20199;-83
2023/04/27 21:08:26;;;;;;;59.87;34.00;;;1.90;99.90;;;;;;12858563;23;20521;-87
2023/04/27 21:13:29;;;;;;;58.57;35.03;;;1.80;99.90;;;;;;12856856;23;20171;-86
2023/04/27 21:18:32;;;;;;;72.70;38.43;;;1.70;99.90;;;;;;12855376;23;20206;-87
2023/04/27 21:23:35;;;;;;;66.20;38.40;;;1.60;99.90;;;;;;12856302;23;20203;-87
2023/04/27 21:28:39;;;;;;;63.37;28.60;;;1.50;99.90;;;;;;12855473;23;20167;-85
2023/04/27 21:33:41;;;;;;;12.47;7.23;;;1.40;99.90;;;;;;12853067;23;20175;-87
2023/04/27 21:38:44;;;;;;;29.27;14.97;;;1.80;99.90;;;;;;12855732;23;20257;-87
2023/04/27 21:43:46;;;;;;;57.60;29.77;;;2.40;99.90;;;;;;12855278;23;20187;-87
2023/04/27 21:48:49;;;;;;;55.30;32.00;;;2.70;99.90;;;;;;12853623;23;20169;-87
2023/04/27 21:53:52;;;;;;;58.43;29.57;;;2.50;99.90;;;;;;12854062;23;20228;-87
2023/04/27 21:58:54;;;;;;;54.63;29.73;;;2.40;99.90;;;;;;12852855;23;20370;-87
2023/04/27 22:03:57;;;;;;;57.43;32.33;;;2.70;99.90;;;;;;12874056;23;20190;-87
2023/04/27 22:09:00;;;;;;;49.80;30.63;;;2.80;99.90;;;;;;12853009;23;20183;-87
2023/04/27 22:14:03;;;;;;;45.60;26.10;;;2.60;99.90;;;;;;12852202;23;20231;-86
2023/04/27 22:19:05;;;;;;;45.47;24.20;;;2.70;99.90;;;;;;12851685;23;20183;-86
2023/04/27 22:24:08;;;;;;;50.03;26.90;;;2.80;99.90;;;;;;12853078;23;20257;-86
2023/04/27 22:29:10;;;;;;;54.10;26.23;;;2.50;99.90;;;;;;12855926;23;20543;-86
2023/04/27 22:34:13;;;;;;;53.80;28.63;;;2.30;99.90;;;;;;12855595;23;20249;-86
2023/04/27 22:39:16;;;;;;;39.73;22.83;;;2.30;99.90;;;;;;12853978;23;20905;-86
2023/04/27 22:44:19;;;;;;;46.70;26.80;;;2.20;99.90;;;;;;12855534;23;20296;-86
2023/04/27 22:49:21;;;;;;;47.03;25.17;;;2.40;99.90;;;;;;12854193;23;20846;-86
2023/04/27 22:54:24;;;;;;;42.43;21.60;;;2.30;99.90;;;;;;12854908;23;20175;-87
2023/04/27 22:59:27;;;;;;;50.20;26.73;;;2.30;99.90;;;;;;12852306;23;20183;-87
2023/04/27 23:04:29;;;;;;;48.03;25.57;;;2.20;99.90;;;;;;12855062;23;20233;-87
2023/04/27 23:09:33;;;;;;;61.23;28.57;;;1.90;99.90;;;;;;12854326;23;20179;-87
2023/04/27 23:14:36;;;;;;;53.90;26.80;;;2.00;99.90;;;;;;12855080;23;20509;-86
2023/04/27 23:19:39;;;;;;;49.83;27.53;;;1.80;99.90;;;;;;12873193;23;20546;-86
2023/04/27 23:24:41;;;;;;;43.90;22.80;;;1.90;99.90;;;;;;12853878;23;20203;-86
2023/04/27 23:29:44;;;;;;;53.97;29.13;;;2.30;99.90;;;;;;12855224;23;20217;-87
2023/04/27 23:34:47;;;;;;;50.63;27.97;;;2.20;99.90;;;;;;12853709;23;20171;-86
2023/04/27 23:39:49;;;;;;;57.93;30.00;;;1.70;99.90;;;;;;12857357;23;20194;-86
2023/04/27 23:44:52;;;;;;;55.43;30.33;;;1.60;99.90;;;;;;12853266;23;20592;-86
2023/04/27 23:49:55;;;;;;;52.60;29.63;;;1.50;99.90;;;;;;12853921;23;20179;-86
2023/04/27 23:54:57;;;;;;;52.17;26.47;;;1.70;99.90;;;;;;12851310;23;20237;-86
